createdAt,value
2018-07-06T00:01:05.885Z,87.60
2018-07-06T00:03:46.121Z,87.00
2018-07-06T00:06:26.029Z,86.20
2018-07-06T00:09:06.513Z,85.70
2018-07-06T00:11:46.289Z,85.30
2018-07-06T00:14:26.361Z,84.80
2018-07-06T00:17:06.154Z,84.50
2018-07-06T00:19:46.073Z,84.60
2018-07-06T00:22:26.198Z,84.60
2018-07-06T00:25:06.118Z,84.40
2018-07-06T00:27:46.290Z,84.30
2018-07-06T00:30:26.110Z,84.10
2018-07-06T00:33:06.114Z,84.10
2018-07-06T00:35:46.092Z,83.90
2018-07-06T00:38:26.040Z,83.90
2018-07-06T00:41:05.920Z,83.80
2018-07-06T00:43:45.920Z,83.90
2018-07-06T00:46:25.690Z,83.90
2018-07-06T00:49:05.652Z,84.20
2018-07-06T00:51:45.379Z,84.30
2018-07-06T00:54:25.256Z,84.60
2018-07-06T00:57:05.409Z,84.80
2018-07-06T00:59:45.225Z,85.10
2018-07-06T01:02:25.089Z,85.30
2018-07-06T01:05:04.862Z,85.70
2018-07-06T01:07:44.705Z,86.40
2018-07-06T01:10:24.609Z,87.00
2018-07-06T01:13:04.433Z,87.30
2018-07-06T01:15:44.217Z,87.80
2018-07-06T01:20:58.617Z,88.70
2018-07-06T01:23:39.541Z,89.10
2018-07-06T01:26:19.573Z,89.90
2018-07-06T01:29:00.245Z,90.10
2018-07-06T01:31:40.499Z,90.30
2018-07-06T01:34:20.325Z,90.60
2018-07-06T01:37:00.401Z,91.10
2018-07-06T01:39:40.030Z,91.40
2018-07-06T01:42:19.865Z,91.50
2018-07-06T01:44:59.761Z,91.90
2018-07-06T01:47:39.600Z,92.50
2018-07-06T01:50:19.532Z,92.50
2018-07-06T01:52:59.524Z,92.60
2018-07-06T01:55:39.394Z,92.90
2018-07-06T01:58:19.344Z,92.90
2018-07-06T02:00:59.344Z,92.70
2018-07-06T02:03:39.133Z,91.80
2018-07-06T02:06:19.058Z,91.20
2018-07-06T02:08:58.796Z,91.10
2018-07-06T02:11:38.712Z,91.20
2018-07-06T02:14:18.517Z,91.30
2018-07-06T02:16:58.326Z,91.40
2018-07-06T02:22:11.757Z,91.70
2018-07-06T02:24:51.579Z,91.90
2018-07-06T02:27:31.527Z,91.90
2018-07-06T02:30:11.173Z,92.00
2018-07-06T02:32:51.137Z,92.10
2018-07-06T02:35:30.946Z,92.20
2018-07-06T02:38:10.768Z,92.30
2018-07-06T02:40:50.646Z,92.40
2018-07-06T02:43:30.516Z,92.50
2018-07-06T02:46:10.322Z,92.70
2018-07-06T02:48:50.372Z,92.90
2018-07-06T02:54:03.976Z,93.20
2018-07-06T02:56:44.192Z,93.30
2018-07-06T02:59:24.002Z,93.40
2018-07-06T03:02:03.879Z,93.60
2018-07-06T03:04:44.256Z,93.90
2018-07-06T03:07:24.088Z,94.10
2018-07-06T03:10:03.944Z,94.30
2018-07-06T03:12:43.920Z,94.40
2018-07-06T03:17:57.696Z,94.80
2018-07-06T03:20:37.482Z,95.10
2018-07-06T03:23:17.262Z,95.50
2018-07-06T03:25:57.251Z,95.90
2018-07-06T03:28:36.939Z,96.10
2018-07-06T03:31:17.109Z,96.50
2018-07-06T03:33:57.008Z,96.80
2018-07-06T03:36:37.673Z,97.00
2018-07-06T03:41:51.760Z,97.30
2018-07-06T03:44:31.714Z,97.50
2018-07-06T03:47:11.706Z,97.70
2018-07-06T03:49:51.699Z,98.00
2018-07-06T03:52:31.524Z,98.30
2018-07-06T03:55:11.567Z,98.70
2018-07-06T03:57:51.349Z,98.80
2018-07-06T04:00:31.304Z,98.90
2018-07-06T04:03:12.100Z,98.80
2018-07-06T04:05:51.775Z,98.70
2018-07-06T04:08:31.588Z,98.50
2018-07-06T04:11:11.505Z,98.20
2018-07-06T04:13:51.243Z,98.00
2018-07-06T04:16:31.199Z,97.90
2018-07-06T04:19:12.040Z,98.20
2018-07-06T04:21:53.873Z,98.40
2018-07-06T04:24:33.788Z,98.60
2018-07-06T04:27:14.017Z,98.80
2018-07-06T04:29:53.806Z,98.80
2018-07-06T04:32:33.614Z,98.70
2018-07-06T04:35:13.590Z,98.60
2018-07-06T04:37:54.194Z,98.40
2018-07-06T04:40:34.469Z,98.20
2018-07-06T04:43:14.153Z,98.00
2018-07-06T04:45:53.994Z,97.80
2018-07-06T04:48:33.730Z,97.70
2018-07-06T04:51:13.593Z,97.50
2018-07-06T04:56:27.211Z,97.40
2018-07-06T04:59:06.980Z,97.40
2018-07-06T05:01:46.880Z,97.40
2018-07-06T05:04:26.623Z,97.30
2018-07-06T05:07:06.626Z,97.10
2018-07-06T05:09:46.501Z,97.10
2018-07-06T05:12:26.233Z,96.80
2018-07-06T05:15:06.196Z,96.90
2018-07-06T05:17:46.072Z,96.90
2018-07-06T05:23:00.190Z,96.70
2018-07-06T05:25:39.894Z,96.50
2018-07-06T05:28:19.818Z,96.30
2018-07-06T05:30:59.770Z,96.10
2018-07-06T05:33:39.521Z,95.90
2018-07-06T05:38:53.413Z,95.70
2018-07-06T05:41:33.189Z,95.80
2018-07-06T05:44:13.073Z,95.70
2018-07-06T05:46:53.171Z,95.70
2018-07-06T05:49:33.008Z,95.40
2018-07-06T05:54:47.425Z,95.10
2018-07-06T05:57:27.183Z,94.90
2018-07-06T06:00:06.980Z,94.80
2018-07-06T06:02:46.942Z,94.70
2018-07-06T06:05:26.746Z,94.50
2018-07-06T06:07:54.236Z,94.30
2018-07-06T06:10:23.207Z,94.10
2018-07-06T06:12:52.066Z,93.90
2018-07-06T06:15:21.064Z,93.70
2018-07-06T06:17:49.905Z,93.40
2018-07-06T06:20:19.187Z,93.20
2018-07-06T06:22:48.042Z,92.80
2018-07-06T06:25:16.926Z,92.10
2018-07-06T06:27:46.383Z,91.70
2018-07-06T06:30:15.343Z,91.20
2018-07-06T06:32:44.544Z,90.60
2018-07-06T06:35:13.756Z,90.10
2018-07-06T06:37:42.789Z,89.80
2018-07-06T06:42:40.647Z,88.20
2018-07-06T06:45:09.767Z,87.20
2018-07-06T06:47:38.828Z,86.70
2018-07-06T06:50:07.792Z,86.00
2018-07-06T06:52:36.917Z,86.10
2018-07-06T06:55:05.989Z,85.30
2018-07-06T06:57:35.556Z,84.80
2018-07-06T07:00:04.609Z,84.20
2018-07-06T07:02:34.666Z,83.70
2018-07-06T07:05:05.616Z,83.30
2018-07-06T07:07:34.904Z,83.10
2018-07-06T07:10:03.657Z,82.40
2018-07-06T07:12:32.734Z,81.40
2018-07-06T07:15:05.536Z,81.00
2018-07-06T07:17:34.554Z,80.80
2018-07-06T07:20:03.512Z,80.20
2018-07-06T07:22:32.709Z,79.70
2018-07-06T07:25:01.777Z,79.60
2018-07-06T07:27:31.025Z,78.80
2018-07-06T07:30:00.214Z,78.60
2018-07-06T07:32:29.713Z,78.50
2018-07-06T07:34:58.739Z,78.40
2018-07-06T07:37:27.943Z,78.00
2018-07-06T07:39:56.793Z,77.50
2018-07-06T07:42:25.841Z,76.60
2018-07-06T07:44:55.055Z,75.70
2018-07-06T07:47:25.003Z,75.60
2018-07-06T07:49:54.275Z,75.10
2018-07-06T07:52:34.069Z,74.80
2018-07-06T07:55:03.137Z,74.70
2018-07-06T07:57:32.045Z,74.10
2018-07-06T08:00:01.448Z,73.40
2018-07-06T08:02:30.431Z,72.80
2018-07-06T08:04:59.361Z,72.70
2018-07-06T08:07:28.413Z,72.00
2018-07-06T08:09:58.122Z,71.10
2018-07-06T08:12:27.061Z,71.00
2018-07-06T08:14:56.335Z,70.50
2018-07-06T08:17:25.467Z,70.40
2018-07-06T08:19:54.405Z,70.10
2018-07-06T08:22:23.295Z,70.10
2018-07-06T08:24:52.307Z,68.60
2018-07-06T08:27:21.188Z,68.20
2018-07-06T08:29:50.181Z,68.10
2018-07-06T08:32:19.139Z,67.60
2018-07-06T08:34:59.074Z,66.90
2018-07-06T08:37:43.911Z,66.50
2018-07-06T08:40:13.065Z,66.20
2018-07-06T08:42:43.191Z,65.70
2018-07-06T08:45:12.365Z,65.00
2018-07-06T08:47:41.658Z,63.70
2018-07-06T08:50:10.970Z,62.80
2018-07-06T08:52:40.782Z,62.70
2018-07-06T08:55:09.760Z,61.10
2018-07-06T08:57:39.587Z,61.80
2018-07-06T09:00:09.762Z,61.40
2018-07-06T09:02:38.999Z,60.50
2018-07-06T09:05:08.602Z,60.40
2018-07-06T09:07:37.635Z,59.30
2018-07-06T09:10:06.766Z,58.20
2018-07-06T09:12:36.052Z,58.50
2018-07-06T09:15:05.672Z,58.90
2018-07-06T09:17:37.799Z,58.40
2018-07-06T09:20:07.572Z,58.10
2018-07-06T09:22:36.454Z,57.40
2018-07-06T09:25:06.539Z,56.60
2018-07-06T09:27:35.412Z,56.60
2018-07-06T09:30:04.753Z,56.40
2018-07-06T09:32:34.022Z,56.10
2018-07-06T09:35:03.145Z,56.20
2018-07-06T09:37:32.206Z,54.20
2018-07-06T09:40:02.500Z,53.70
2018-07-06T09:42:32.526Z,53.70
2018-07-06T09:45:01.403Z,53.70
2018-07-06T09:47:31.609Z,53.60
2018-07-06T09:50:01.547Z,53.70
2018-07-06T09:55:00.606Z,53.10
2018-07-06T09:57:30.185Z,52.70
2018-07-06T10:00:00.722Z,51.80
2018-07-06T10:02:29.630Z,51.70
2018-07-06T10:04:58.533Z,51.40
2018-07-06T10:07:27.611Z,51.40
2018-07-06T10:10:00.445Z,50.90
2018-07-06T10:12:29.947Z,50.70
2018-07-06T10:14:59.202Z,49.80
2018-07-06T10:17:29.111Z,50.00
2018-07-06T10:19:59.166Z,49.70
2018-07-06T10:22:28.356Z,49.30
2018-07-06T10:24:57.290Z,49.40
2018-07-06T10:27:34.757Z,50.50
2018-07-06T10:30:35.079Z,51.10
2018-07-06T10:33:04.083Z,51.50
2018-07-06T10:35:33.079Z,51.20
2018-07-06T10:38:01.969Z,51.60
2018-07-06T10:40:30.958Z,51.90
2018-07-06T10:43:00.353Z,52.20
2018-07-06T10:45:29.334Z,52.80
2018-07-06T10:47:58.267Z,52.40
2018-07-06T10:50:27.603Z,51.50
2018-07-06T10:52:56.533Z,51.50
2018-07-06T10:55:25.397Z,51.10
2018-07-06T10:57:54.356Z,51.30
2018-07-06T11:00:23.258Z,51.40
2018-07-06T11:02:52.202Z,50.90
2018-07-06T11:05:21.105Z,50.90
2018-07-06T11:07:50.024Z,50.50
2018-07-06T11:10:18.949Z,49.60
2018-07-06T11:12:48.038Z,48.80
2018-07-06T11:15:17.540Z,48.20
2018-07-06T11:17:46.538Z,48.10
2018-07-06T11:20:15.457Z,48.30
2018-07-06T11:22:44.372Z,48.60
2018-07-06T11:25:13.763Z,48.10
2018-07-06T11:27:42.933Z,48.00
2018-07-06T11:30:15.717Z,48.10
2018-07-06T11:32:44.626Z,48.90
2018-07-06T11:35:13.534Z,48.40
2018-07-06T11:37:42.468Z,48.60
2018-07-06T11:40:11.397Z,49.30
2018-07-06T11:42:40.421Z,48.10
2018-07-06T11:45:09.689Z,49.20
2018-07-06T11:47:39.194Z,48.80
2018-07-06T11:50:08.015Z,49.20
2018-07-06T11:52:36.971Z,49.60
2018-07-06T11:55:05.880Z,49.70
2018-07-06T11:57:34.780Z,48.80
2018-07-06T12:00:03.783Z,48.50
2018-07-06T12:02:32.642Z,47.90
2018-07-06T12:05:01.493Z,48.80
2018-07-06T12:07:31.048Z,48.10
2018-07-06T12:09:59.938Z,47.10
2018-07-06T12:12:29.926Z,46.60
2018-07-06T12:14:58.848Z,45.80
2018-07-06T12:17:28.123Z,45.70
2018-07-06T12:19:57.004Z,46.40
2018-07-06T12:24:54.528Z,46.40
2018-07-06T12:27:23.388Z,45.90
2018-07-06T12:32:20.708Z,45.20
2018-07-06T12:34:49.657Z,44.70
2018-07-06T12:37:18.686Z,44.80
2018-07-06T12:39:47.600Z,44.50
2018-07-06T12:42:17.060Z,43.90
2018-07-06T12:44:46.146Z,44.20
2018-07-06T12:47:15.662Z,44.20
2018-07-06T12:49:44.518Z,44.50
2018-07-06T12:52:13.437Z,45.80
2018-07-06T12:54:42.387Z,46.40
2018-07-06T12:57:11.309Z,45.70
2018-07-06T12:59:40.241Z,45.60
2018-07-06T13:02:09.160Z,44.90
2018-07-06T13:04:38.638Z,43.90
2018-07-06T13:07:07.570Z,44.30
2018-07-06T13:09:36.465Z,44.20
2018-07-06T13:12:05.390Z,43.70
2018-07-06T13:14:34.300Z,43.70
2018-07-06T13:17:03.198Z,44.80
2018-07-06T13:19:32.033Z,45.60
2018-07-06T13:22:01.158Z,44.70
2018-07-06T13:24:30.763Z,45.60
2018-07-06T13:27:00.051Z,44.20
2018-07-06T13:29:28.961Z,44.10
2018-07-06T13:31:57.873Z,42.50
2018-07-06T13:34:26.767Z,41.80
2018-07-06T13:36:55.605Z,39.90
2018-07-06T13:39:24.428Z,39.10
2018-07-06T13:41:53.435Z,38.60
2018-07-06T13:44:22.383Z,38.80
2018-07-06T13:46:51.763Z,38.20
2018-07-06T13:49:20.673Z,36.90
2018-07-06T13:51:49.541Z,36.10
2018-07-06T13:54:19.153Z,36.90
2018-07-06T13:56:48.863Z,35.30
2018-07-06T13:59:17.915Z,34.80
2018-07-06T14:01:46.647Z,34.60
2018-07-06T14:04:15.892Z,34.30
2018-07-06T14:06:45.022Z,34.70
2018-07-06T14:09:14.122Z,34.60
2018-07-06T14:11:43.050Z,35.40
2018-07-06T14:14:11.912Z,35.00
2018-07-06T14:16:41.046Z,36.20
2018-07-06T14:19:09.924Z,35.80
2018-07-06T14:21:38.836Z,36.40
2018-07-06T14:24:07.806Z,35.00
2018-07-06T14:26:36.668Z,35.10
2018-07-06T14:29:06.036Z,34.20
2018-07-06T14:31:34.969Z,33.10
2018-07-06T14:34:03.838Z,33.80
2018-07-06T14:36:32.661Z,34.60
2018-07-06T14:39:03.133Z,34.10
2018-07-06T14:41:32.001Z,34.00
2018-07-06T14:44:01.254Z,33.90
2018-07-06T14:46:30.074Z,32.70
2018-07-06T14:48:58.964Z,33.00
2018-07-06T14:51:28.285Z,33.20
2018-07-06T14:53:57.548Z,33.50
2018-07-06T14:56:26.428Z,34.00
2018-07-06T14:58:55.360Z,33.80
2018-07-06T15:01:24.463Z,33.70
2018-07-06T15:03:53.484Z,34.20
2018-07-06T15:06:22.864Z,33.50
2018-07-06T15:08:51.927Z,33.40
2018-07-06T15:11:20.810Z,32.10
2018-07-06T15:13:49.770Z,31.90
2018-07-06T15:16:18.589Z,31.50
2018-07-06T15:18:49.222Z,31.50
2018-07-06T15:21:18.115Z,32.20
2018-07-06T15:23:47.002Z,32.60
2018-07-06T15:26:15.995Z,32.60
2018-07-06T15:28:44.912Z,32.70
2018-07-06T15:31:14.168Z,32.60
2018-07-06T15:33:43.478Z,32.10
2018-07-06T15:36:12.353Z,31.50
2018-07-06T15:38:44.420Z,31.30
2018-07-06T15:41:13.430Z,31.30
2018-07-06T15:43:42.653Z,32.40
2018-07-06T15:46:11.762Z,31.90
2018-07-06T15:48:40.709Z,31.90
2018-07-06T15:51:09.531Z,31.40
2018-07-06T15:53:38.561Z,31.70
2018-07-06T15:56:07.706Z,32.40
2018-07-06T15:58:36.593Z,33.40
2018-07-06T16:01:05.690Z,31.90
2018-07-06T16:03:34.762Z,31.70
2018-07-06T16:06:03.828Z,31.10
2018-07-06T16:08:32.755Z,31.30
2018-07-06T16:11:01.805Z,31.60
2018-07-06T16:13:30.691Z,30.80
2018-07-06T16:15:59.709Z,30.70
2018-07-06T16:18:28.608Z,31.10
2018-07-06T16:20:57.506Z,30.20
2018-07-06T16:23:26.642Z,30.90
2018-07-06T16:25:55.572Z,30.10
2018-07-06T16:28:24.720Z,30.40
2018-07-06T16:30:53.568Z,30.50
2018-07-06T16:33:22.538Z,30.20
2018-07-06T16:35:51.461Z,30.30
2018-07-06T16:38:20.578Z,29.40
2018-07-06T16:40:49.601Z,30.50
2018-07-06T16:43:18.572Z,31.30
2018-07-06T16:45:48.196Z,31.40
2018-07-06T16:48:17.013Z,30.60
2018-07-06T16:50:45.938Z,31.20
2018-07-06T16:53:14.849Z,31.00
2018-07-06T16:55:43.712Z,32.00
2018-07-06T16:58:12.686Z,32.90
2018-07-06T17:00:41.590Z,32.00
2018-07-06T17:03:10.531Z,33.00
2018-07-06T17:05:40.514Z,33.00
2018-07-06T17:08:09.390Z,34.60
2018-07-06T17:10:38.289Z,33.10
2018-07-06T17:13:07.209Z,31.90
2018-07-06T17:15:36.031Z,32.30
2018-07-06T17:18:05.137Z,32.30
2018-07-06T17:20:34.073Z,32.20
2018-07-06T17:23:03.075Z,31.50
2018-07-06T17:25:31.936Z,32.30
2018-07-06T17:28:01.017Z,33.30
2018-07-06T17:30:29.900Z,33.80
2018-07-06T17:32:58.765Z,35.00
2018-07-06T17:35:28.634Z,35.40
2018-07-06T17:40:25.956Z,34.80
2018-07-06T17:42:54.804Z,35.30
2018-07-06T17:45:23.785Z,35.20
2018-07-06T17:47:52.630Z,34.60
2018-07-06T17:50:21.597Z,35.30
2018-07-06T17:52:50.893Z,34.40
2018-07-06T17:55:19.749Z,34.30
2018-07-06T17:57:48.636Z,34.60
2018-07-06T18:00:17.693Z,34.20
2018-07-06T18:02:46.546Z,34.40
2018-07-06T18:05:15.488Z,34.10
2018-07-06T18:07:44.374Z,33.60
2018-07-06T18:10:13.212Z,34.90
2018-07-06T18:12:42.068Z,34.90
2018-07-06T18:15:11.031Z,35.80
2018-07-06T18:17:40.128Z,36.90
2018-07-06T18:20:09.060Z,37.00
2018-07-06T18:22:38.037Z,37.30
2018-07-06T18:25:06.957Z,37.00
2018-07-06T18:27:36.166Z,37.00
2018-07-06T18:30:05.044Z,37.70
2018-07-06T18:32:33.897Z,37.30
2018-07-06T18:35:03.205Z,38.10
2018-07-06T18:37:32.256Z,37.70
2018-07-06T18:40:01.044Z,37.90
2018-07-06T18:42:29.945Z,37.50
2018-07-06T18:44:59.665Z,38.60
2018-07-06T18:47:28.581Z,38.00
2018-07-06T18:49:57.396Z,38.70
2018-07-06T18:52:26.545Z,39.10
2018-07-06T18:54:57.550Z,39.10
2018-07-06T18:57:26.501Z,39.90
2018-07-06T18:59:55.451Z,39.70
2018-07-06T19:02:24.493Z,40.10
2018-07-06T19:04:53.338Z,40.90
2018-07-06T19:07:22.194Z,41.50
2018-07-06T19:09:51.076Z,41.60
2018-07-06T19:12:19.980Z,42.30
2018-07-06T19:17:17.317Z,43.40
2018-07-06T19:19:46.186Z,43.90
2018-07-06T19:22:15.382Z,44.70
2018-07-06T19:24:44.272Z,45.10
2018-07-06T19:27:13.326Z,45.70
2018-07-06T19:29:42.282Z,46.30
2018-07-06T19:32:11.384Z,47.10
2018-07-06T19:34:40.233Z,47.60
2018-07-06T19:37:09.241Z,48.30
2018-07-06T19:39:38.098Z,49.20
2018-07-06T19:42:07.088Z,49.30
2018-07-06T19:44:35.955Z,50.00
2018-07-06T19:47:04.927Z,50.10
2018-07-06T19:49:33.801Z,50.80
2018-07-06T19:52:02.822Z,51.00
2018-07-06T19:54:31.698Z,52.10
2018-07-06T19:57:00.951Z,54.30
2018-07-06T19:59:29.992Z,55.60
2018-07-06T20:01:58.960Z,57.60
2018-07-06T20:04:27.901Z,59.30
2018-07-06T20:06:56.769Z,61.40
2018-07-06T20:09:25.712Z,63.30
2018-07-06T20:11:54.788Z,65.10
2018-07-06T20:14:23.710Z,67.00
2018-07-06T20:16:52.597Z,69.00
2018-07-06T20:19:21.563Z,71.40
2018-07-06T20:21:50.392Z,73.80
2018-07-06T20:24:19.322Z,76.70
2018-07-06T20:26:48.157Z,79.80
2018-07-06T20:29:17.066Z,83.00
2018-07-06T20:31:46.061Z,86.80
2018-07-06T20:34:15.056Z,89.60
2018-07-06T20:36:44.133Z,90.90
2018-07-06T20:39:13.051Z,92.10
2018-07-06T20:41:42.086Z,92.80
2018-07-06T20:44:11.004Z,93.50
2018-07-06T20:46:39.970Z,94.30
2018-07-06T20:49:08.997Z,94.80
2018-07-06T20:51:37.869Z,95.50
2018-07-06T20:54:06.802Z,96.10
2018-07-06T20:56:35.721Z,96.80
2018-07-06T20:59:04.841Z,97.20
2018-07-06T21:01:40.046Z,97.70
2018-07-06T21:04:08.940Z,98.30
2018-07-06T21:06:37.855Z,99.00
2018-07-06T21:09:07.360Z,99.30
2018-07-06T21:11:36.379Z,99.60
2018-07-06T21:14:05.368Z,99.90
2018-07-06T21:16:34.257Z,99.90
2018-07-06T21:19:06.430Z,99.90
2018-07-06T21:21:35.627Z,99.90
2018-07-06T21:24:04.695Z,99.90
2018-07-06T21:26:33.729Z,99.90
2018-07-06T21:29:02.965Z,99.90
2018-07-06T21:31:32.014Z,99.90
2018-07-06T21:34:01.052Z,99.90
2018-07-06T21:36:34.670Z,99.90
2018-07-06T21:39:04.422Z,99.90
2018-07-06T21:41:33.577Z,99.90
2018-07-06T21:44:02.968Z,99.90
2018-07-06T21:49:04.513Z,99.90
2018-07-06T21:51:33.591Z,99.90
2018-07-06T21:54:02.730Z,99.90
2018-07-06T21:56:31.782Z,99.90
2018-07-06T21:59:00.834Z,99.90
2018-07-06T22:01:29.920Z,99.90
2018-07-06T22:03:58.867Z,99.90
2018-07-06T22:06:28.137Z,99.90
2018-07-06T22:08:57.178Z,99.90
2018-07-06T22:11:26.247Z,99.90
2018-07-06T22:13:55.465Z,99.90
2018-07-06T22:16:24.691Z,99.90
2018-07-06T22:18:53.705Z,99.90
2018-07-06T22:21:22.681Z,99.90
2018-07-06T22:23:51.656Z,99.90
2018-07-06T22:26:20.590Z,99.90
2018-07-06T22:28:49.602Z,99.90
2018-07-06T22:31:18.705Z,99.90
2018-07-06T22:33:59.982Z,99.90
2018-07-06T22:36:31.008Z,99.90
2018-07-06T22:38:59.862Z,99.90
2018-07-06T22:41:28.780Z,99.90
2018-07-06T22:43:57.656Z,99.90
2018-07-06T22:46:26.640Z,99.90
2018-07-06T22:48:55.635Z,99.90
2018-07-06T22:51:24.556Z,99.90
2018-07-06T22:53:53.366Z,99.90
2018-07-06T22:56:22.668Z,99.90
2018-07-06T22:58:52.668Z,99.90
2018-07-06T23:01:21.631Z,99.90
2018-07-06T23:06:19.079Z,99.90
2018-07-06T23:08:48.071Z,99.90
2018-07-06T23:11:17.129Z,99.90
2018-07-06T23:13:46.380Z,99.90
2018-07-06T23:16:15.293Z,99.90
2018-07-06T23:18:44.157Z,99.90
2018-07-06T23:21:14.305Z,99.90
2018-07-06T23:23:43.176Z,99.90
2018-07-06T23:26:12.117Z,99.90
2018-07-06T23:28:41.235Z,99.90
2018-07-06T23:31:10.122Z,99.90
2018-07-06T23:33:38.994Z,99.90
2018-07-06T23:36:07.917Z,99.90
2018-07-06T23:38:36.957Z,99.90
2018-07-06T23:41:05.936Z,99.90
2018-07-06T23:43:34.790Z,99.90
2018-07-06T23:46:03.714Z,99.90
2018-07-06T23:48:32.700Z,99.90
2018-07-06T23:51:01.764Z,99.90
2018-07-06T23:53:30.853Z,99.90
2018-07-06T23:58:28.566Z,99.90
